sensor_id;sensor_type;location;lat;lon;timestamp;temperature;humidity
65203;HTU21D;51788;45.124;38.966;2023-11-19T00:00:17;10.11;78.30
65203;HTU21D;51788;45.124;38.966;2023-11-19T00:02:43;10.14;78.27
65203;HTU21D;51788;45.124;38.966;2023-11-19T00:05:10;10.14;78.26
65203;HTU21D;51788;45.124;38.966;2023-11-19T00:07:40;10.16;77.88
65203;HTU21D;51788;45.124;38.966;2023-11-19T00:10:10;10.14;78.07
65203;HTU21D;51788;45.124;38.966;2023-11-19T00:12:42;10.11;78.23
65203;HTU21D;51788;45.124;38.966;2023-11-19T00:15:08;10.11;78.12
65203;HTU21D;51788;45.124;38.966;2023-11-19T00:17:40;10.03;78.45
65203;HTU21D;51788;45.124;38.966;2023-11-19T00:20:11;10.06;78.22
65203;HTU21D;51788;45.124;38.966;2023-11-19T00:22:37;10.05;78.22
65203;HTU21D;51788;45.124;38.966;2023-11-19T00:25:04;10.00;78.46
65203;HTU21D;51788;45.124;38.966;2023-11-19T00:27:31;10.06;78.08
65203;HTU21D;51788;45.124;38.966;2023-11-19T00:29:57;10.04;78.09
65203;HTU21D;51788;45.124;38.966;2023-11-19T00:32:24;10.03;78.30
65203;HTU21D;51788;45.124;38.966;2023-11-19T00:34:50;10.00;78.35
65203;HTU21D;51788;45.124;38.966;2023-11-19T00:37:16;10.04;78.11
65203;HTU21D;51788;45.124;38.966;2023-11-19T00:39:43;10.00;78.29
65203;HTU21D;51788;45.124;38.966;2023-11-19T00:42:09;9.99;78.41
65203;HTU21D;51788;45.124;38.966;2023-11-19T00:44:36;10.03;78.31
65203;HTU21D;51788;45.124;38.966;2023-11-19T00:47:02;10.06;78.06
65203;HTU21D;51788;45.124;38.966;2023-11-19T00:49:28;10.08;77.92
65203;HTU21D;51788;45.124;38.966;2023-11-19T00:51:55;10.05;78.24
65203;HTU21D;51788;45.124;38.966;2023-11-19T00:54:20;10.09;77.87
65203;HTU21D;51788;45.124;38.966;2023-11-19T00:56:47;10.14;77.44
65203;HTU21D;51788;45.124;38.966;2023-11-19T00:59:13;10.14;77.50
65203;HTU21D;51788;45.124;38.966;2023-11-19T01:01:39;10.14;77.56
65203;HTU21D;51788;45.124;38.966;2023-11-19T01:04:06;10.13;77.66
65203;HTU21D;51788;45.124;38.966;2023-11-19T01:06:32;10.12;77.68
65203;HTU21D;51788;45.124;38.966;2023-11-19T01:08:58;10.15;77.35
65203;HTU21D;51788;45.124;38.966;2023-11-19T01:11:25;10.12;77.45
65203;HTU21D;51788;45.124;38.966;2023-11-19T01:13:51;10.15;77.42
65203;HTU21D;51788;45.124;38.966;2023-11-19T01:16:18;10.14;77.46
65203;HTU21D;51788;45.124;38.966;2023-11-19T01:18:47;10.15;77.44
65203;HTU21D;51788;45.124;38.966;2023-11-19T01:21:15;10.18;77.29
65203;HTU21D;51788;45.124;38.966;2023-11-19T01:23:41;10.16;77.34
65203;HTU21D;51788;45.124;38.966;2023-11-19T01:26:14;10.13;77.45
65203;HTU21D;51788;45.124;38.966;2023-11-19T01:28:40;10.11;77.69
65203;HTU21D;51788;45.124;38.966;2023-11-19T01:31:08;10.13;77.63
65203;HTU21D;51788;45.124;38.966;2023-11-19T01:33:38;10.14;77.63
65203;HTU21D;51788;45.124;38.966;2023-11-19T01:36:05;10.13;77.74
65203;HTU21D;51788;45.124;38.966;2023-11-19T01:38:31;10.11;77.82
65203;HTU21D;51788;45.124;38.966;2023-11-19T01:40:57;10.10;77.91
65203;HTU21D;51788;45.124;38.966;2023-11-19T01:43:39;10.13;77.81
65203;HTU21D;51788;45.124;38.966;2023-11-19T01:46:08;10.16;77.57
65203;HTU21D;51788;45.124;38.966;2023-11-19T01:48:43;10.16;77.58
65203;HTU21D;51788;45.124;38.966;2023-11-19T01:51:12;10.19;77.52
65203;HTU21D;51788;45.124;38.966;2023-11-19T01:53:39;10.20;77.30
65203;HTU21D;51788;45.124;38.966;2023-11-19T01:56:07;10.21;77.25
65203;HTU21D;51788;45.124;38.966;2023-11-19T01:58:38;10.27;76.82
65203;HTU21D;51788;45.124;38.966;2023-11-19T02:01:09;10.31;76.53
65203;HTU21D;51788;45.124;38.966;2023-11-19T02:03:37;10.35;76.49
65203;HTU21D;51788;45.124;38.966;2023-11-19T02:06:03;10.35;76.56
65203;HTU21D;51788;45.124;38.966;2023-11-19T02:08:30;10.37;76.50
65203;HTU21D;51788;45.124;38.966;2023-11-19T02:10:57;10.39;76.49
65203;HTU21D;51788;45.124;38.966;2023-11-19T02:13:24;10.41;76.44
65203;HTU21D;51788;45.124;38.966;2023-11-19T02:15:51;10.43;76.43
65203;HTU21D;51788;45.124;38.966;2023-11-19T02:20:45;10.43;76.68
65203;HTU21D;51788;45.124;38.966;2023-11-19T02:23:12;10.48;76.58
65203;HTU21D;51788;45.124;38.966;2023-11-19T02:25:40;10.46;76.83
65203;HTU21D;51788;45.124;38.966;2023-11-19T02:28:06;10.43;77.16
65203;HTU21D;51788;45.124;38.966;2023-11-19T02:30:33;10.52;76.91
65203;HTU21D;51788;45.124;38.966;2023-11-19T02:32:59;10.51;77.08
65203;HTU21D;51788;45.124;38.966;2023-11-19T02:35:31;10.49;77.42
65203;HTU21D;51788;45.124;38.966;2023-11-19T02:37:58;10.51;77.91
65203;HTU21D;51788;45.124;38.966;2023-11-19T02:40:29;10.56;78.87
65203;HTU21D;51788;45.124;38.966;2023-11-19T02:42:55;10.42;79.30
65203;HTU21D;51788;45.124;38.966;2023-11-19T02:45:25;10.35;79.99
65203;HTU21D;51788;45.124;38.966;2023-11-19T02:47:52;10.29;80.49
65203;HTU21D;51788;45.124;38.966;2023-11-19T02:50:20;10.27;80.75
65203;HTU21D;51788;45.124;38.966;2023-11-19T02:52:52;10.25;81.02
65203;HTU21D;51788;45.124;38.966;2023-11-19T02:55:19;10.19;81.30
65203;HTU21D;51788;45.124;38.966;2023-11-19T02:57:45;10.16;81.63
65203;HTU21D;51788;45.124;38.966;2023-11-19T03:00:16;10.10;81.91
65203;HTU21D;51788;45.124;38.966;2023-11-19T03:02:43;10.08;82.20
65203;HTU21D;51788;45.124;38.966;2023-11-19T03:05:14;10.05;82.24
65203;HTU21D;51788;45.124;38.966;2023-11-19T03:07:44;10.03;82.53
65203;HTU21D;51788;45.124;38.966;2023-11-19T03:10:10;9.99;82.86
65203;HTU21D;51788;45.124;38.966;2023-11-19T03:12:40;9.94;83.03
65203;HTU21D;51788;45.124;38.966;2023-11-19T03:15:07;9.88;83.41
65203;HTU21D;51788;45.124;38.966;2023-11-19T03:17:39;9.64;84.48
65203;HTU21D;51788;45.124;38.966;2023-11-19T03:20:06;9.53;85.10
65203;HTU21D;51788;45.124;38.966;2023-11-19T03:22:39;9.49;85.46
65203;HTU21D;51788;45.124;38.966;2023-11-19T03:25:08;9.47;85.82
65203;HTU21D;51788;45.124;38.966;2023-11-19T03:27:37;9.45;85.91
65203;HTU21D;51788;45.124;38.966;2023-11-19T03:30:10;9.46;86.03
65203;HTU21D;51788;45.124;38.966;2023-11-19T03:32:36;9.44;86.24
65203;HTU21D;51788;45.124;38.966;2023-11-19T03:35:05;9.48;86.22
65203;HTU21D;51788;45.124;38.966;2023-11-19T03:37:33;9.50;86.27
65203;HTU21D;51788;45.124;38.966;2023-11-19T03:40:00;9.50;86.22
65203;HTU21D;51788;45.124;38.966;2023-11-19T03:42:27;9.51;86.34
65203;HTU21D;51788;45.124;38.966;2023-11-19T03:44:54;9.53;86.18
65203;HTU21D;51788;45.124;38.966;2023-11-19T03:47:20;9.55;86.07
65203;HTU21D;51788;45.124;38.966;2023-11-19T03:49:49;9.53;86.25
65203;HTU21D;51788;45.124;38.966;2023-11-19T03:52:15;9.52;86.37
65203;HTU21D;51788;45.124;38.966;2023-11-19T03:54:42;9.49;86.36
65203;HTU21D;51788;45.124;38.966;2023-11-19T03:57:09;9.33;87.04
65203;HTU21D;51788;45.124;38.966;2023-11-19T03:59:36;9.17;87.60
65203;HTU21D;51788;45.124;38.966;2023-11-19T04:02:02;9.11;88.01
65203;HTU21D;51788;45.124;38.966;2023-11-19T04:04:29;9.12;88.15
65203;HTU21D;51788;45.124;38.966;2023-11-19T04:06:56;9.11;88.18
65203;HTU21D;51788;45.124;38.966;2023-11-19T04:09:22;9.11;88.19
65203;HTU21D;51788;45.124;38.966;2023-11-19T04:11:48;9.07;88.27
65203;HTU21D;51788;45.124;38.966;2023-11-19T04:14:14;9.10;88.15
65203;HTU21D;51788;45.124;38.966;2023-11-19T04:16:41;9.08;88.16
65203;HTU21D;51788;45.124;38.966;2023-11-19T04:19:07;9.11;87.85
65203;HTU21D;51788;45.124;38.966;2023-11-19T04:21:33;9.14;87.60
65203;HTU21D;51788;45.124;38.966;2023-11-19T04:23:59;9.19;87.00
65203;HTU21D;51788;45.124;38.966;2023-11-19T04:26:25;9.19;87.18
65203;HTU21D;51788;45.124;38.966;2023-11-19T04:28:51;9.24;86.35
65203;HTU21D;51788;45.124;38.966;2023-11-19T04:31:19;9.26;85.96
65203;HTU21D;51788;45.124;38.966;2023-11-19T04:33:45;9.23;86.32
65203;HTU21D;51788;45.124;38.966;2023-11-19T04:36:12;9.27;86.09
65203;HTU21D;51788;45.124;38.966;2023-11-19T04:38:40;9.29;85.93
65203;HTU21D;51788;45.124;38.966;2023-11-19T04:41:06;9.35;85.16
65203;HTU21D;51788;45.124;38.966;2023-11-19T04:43:32;9.35;85.19
65203;HTU21D;51788;45.124;38.966;2023-11-19T04:45:58;9.33;85.19
65203;HTU21D;51788;45.124;38.966;2023-11-19T04:48:24;9.21;85.92
65203;HTU21D;51788;45.124;38.966;2023-11-19T04:50:50;9.12;86.41
65203;HTU21D;51788;45.124;38.966;2023-11-19T04:53:19;9.05;86.70
65203;HTU21D;51788;45.124;38.966;2023-11-19T04:55:45;9.01;86.90
65203;HTU21D;51788;45.124;38.966;2023-11-19T04:58:11;9.00;86.64
65203;HTU21D;51788;45.124;38.966;2023-11-19T05:00:37;8.96;86.93
65203;HTU21D;51788;45.124;38.966;2023-11-19T05:03:03;8.93;86.92
65203;HTU21D;51788;45.124;38.966;2023-11-19T05:05:29;8.81;87.35
65203;HTU21D;51788;45.124;38.966;2023-11-19T05:07:55;8.77;87.69
65203;HTU21D;51788;45.124;38.966;2023-11-19T05:10:21;8.79;87.76
65203;HTU21D;51788;45.124;38.966;2023-11-19T05:12:47;8.71;87.94
65203;HTU21D;51788;45.124;38.966;2023-11-19T05:15:13;8.70;87.96
65203;HTU21D;51788;45.124;38.966;2023-11-19T05:17:40;8.66;88.01
65203;HTU21D;51788;45.124;38.966;2023-11-19T05:20:06;8.57;88.15
65203;HTU21D;51788;45.124;38.966;2023-11-19T05:22:40;8.61;87.77
65203;HTU21D;51788;45.124;38.966;2023-11-19T05:25:06;8.55;87.95
65203;HTU21D;51788;45.124;38.966;2023-11-19T05:27:32;8.51;88.07
65203;HTU21D;51788;45.124;38.966;2023-11-19T05:29:58;8.53;87.96
65203;HTU21D;51788;45.124;38.966;2023-11-19T05:32:24;8.47;88.16
65203;HTU21D;51788;45.124;38.966;2023-11-19T05:34:51;8.48;88.15
65203;HTU21D;51788;45.124;38.966;2023-11-19T05:37:17;8.46;88.12
65203;HTU21D;51788;45.124;38.966;2023-11-19T05:39:45;8.45;88.35
65203;HTU21D;51788;45.124;38.966;2023-11-19T05:42:11;8.39;88.51
65203;HTU21D;51788;45.124;38.966;2023-11-19T05:44:37;8.39;88.30
65203;HTU21D;51788;45.124;38.966;2023-11-19T05:47:03;8.36;88.69
65203;HTU21D;51788;45.124;38.966;2023-11-19T05:49:30;8.37;88.80
65203;HTU21D;51788;45.124;38.966;2023-11-19T05:51:55;8.35;88.71
65203;HTU21D;51788;45.124;38.966;2023-11-19T05:54:21;8.31;88.92
65203;HTU21D;51788;45.124;38.966;2023-11-19T05:56:48;8.22;89.32
65203;HTU21D;51788;45.124;38.966;2023-11-19T05:59:15;8.26;89.45
65203;HTU21D;51788;45.124;38.966;2023-11-19T06:01:44;8.23;89.40
65203;HTU21D;51788;45.124;38.966;2023-11-19T06:04:09;8.26;89.36
65203;HTU21D;51788;45.124;38.966;2023-11-19T06:06:36;8.24;89.34
65203;HTU21D;51788;45.124;38.966;2023-11-19T06:09:03;8.20;89.50
65203;HTU21D;51788;45.124;38.966;2023-11-19T06:11:29;8.20;89.50
65203;HTU21D;51788;45.124;38.966;2023-11-19T06:13:55;8.19;89.37
65203;HTU21D;51788;45.124;38.966;2023-11-19T06:16:21;8.15;89.55
65203;HTU21D;51788;45.124;38.966;2023-11-19T06:18:48;8.13;89.35
65203;HTU21D;51788;45.124;38.966;2023-11-19T06:21:14;8.13;89.65
65203;HTU21D;51788;45.124;38.966;2023-11-19T06:23:40;8.15;89.69
65203;HTU21D;51788;45.124;38.966;2023-11-19T06:26:06;8.18;89.46
65203;HTU21D;51788;45.124;38.966;2023-11-19T06:28:32;8.17;89.49
65203;HTU21D;51788;45.124;38.966;2023-11-19T06:30:58;8.15;89.35
65203;HTU21D;51788;45.124;38.966;2023-11-19T06:33:24;8.14;89.57
65203;HTU21D;51788;45.124;38.966;2023-11-19T06:35:51;8.12;89.66
65203;HTU21D;51788;45.124;38.966;2023-11-19T06:38:17;8.15;89.70
65203;HTU21D;51788;45.124;38.966;2023-11-19T06:40:43;8.17;89.85
65203;HTU21D;51788;45.124;38.966;2023-11-19T06:43:09;8.18;89.79
65203;HTU21D;51788;45.124;38.966;2023-11-19T06:45:35;8.18;89.86
65203;HTU21D;51788;45.124;38.966;2023-11-19T06:48:04;8.16;89.87
65203;HTU21D;51788;45.124;38.966;2023-11-19T06:50:31;8.21;89.57
65203;HTU21D;51788;45.124;38.966;2023-11-19T06:52:57;8.19;89.83
65203;HTU21D;51788;45.124;38.966;2023-11-19T06:55:23;8.20;89.68
65203;HTU21D;51788;45.124;38.966;2023-11-19T06:57:49;8.20;89.76
65203;HTU21D;51788;45.124;38.966;2023-11-19T07:00:16;8.17;89.89
65203;HTU21D;51788;45.124;38.966;2023-11-19T07:02:42;8.19;89.93
65203;HTU21D;51788;45.124;38.966;2023-11-19T07:05:10;8.22;89.90
65203;HTU21D;51788;45.124;38.966;2023-11-19T07:07:37;8.23;89.92
65203;HTU21D;51788;45.124;38.966;2023-11-19T07:10:04;8.26;89.82
65203;HTU21D;51788;45.124;38.966;2023-11-19T07:12:31;8.24;89.99
65203;HTU21D;51788;45.124;38.966;2023-11-19T07:14:57;8.23;90.66
65203;HTU21D;51788;45.124;38.966;2023-11-19T07:17:23;8.18;90.82
65203;HTU21D;51788;45.124;38.966;2023-11-19T07:19:49;8.22;90.57
65203;HTU21D;51788;45.124;38.966;2023-11-19T07:22:16;8.22;90.63
65203;HTU21D;51788;45.124;38.966;2023-11-19T07:24:41;8.23;90.79
65203;HTU21D;51788;45.124;38.966;2023-11-19T07:27:08;8.26;90.65
65203;HTU21D;51788;45.124;38.966;2023-11-19T07:29:37;8.22;90.60
65203;HTU21D;51788;45.124;38.966;2023-11-19T07:32:04;8.24;90.75
65203;HTU21D;51788;45.124;38.966;2023-11-19T07:34:30;8.26;90.35
65203;HTU21D;51788;45.124;38.966;2023-11-19T07:36:56;8.23;90.53
65203;HTU21D;51788;45.124;38.966;2023-11-19T07:39:28;8.21;90.65
65203;HTU21D;51788;45.124;38.966;2023-11-19T07:41:54;8.22;90.66
65203;HTU21D;51788;45.124;38.966;2023-11-19T07:44:21;8.27;91.02
65203;HTU21D;51788;45.124;38.966;2023-11-19T07:46:47;8.31;90.82
65203;HTU21D;51788;45.124;38.966;2023-11-19T07:49:14;8.34;90.89
65203;HTU21D;51788;45.124;38.966;2023-11-19T07:51:40;8.34;90.66
65203;HTU21D;51788;45.124;38.966;2023-11-19T07:54:06;8.32;90.76
65203;HTU21D;51788;45.124;38.966;2023-11-19T07:56:33;8.29;90.93
65203;HTU21D;51788;45.124;38.966;2023-11-19T07:59:02;8.31;90.47
65203;HTU21D;51788;45.124;38.966;2023-11-19T08:01:28;8.33;90.73
65203;HTU21D;51788;45.124;38.966;2023-11-19T08:03:54;8.37;90.50
65203;HTU21D;51788;45.124;38.966;2023-11-19T08:06:20;8.43;90.44
65203;HTU21D;51788;45.124;38.966;2023-11-19T08:08:46;8.45;90.21
65203;HTU21D;51788;45.124;38.966;2023-11-19T08:11:13;8.41;90.41
65203;HTU21D;51788;45.124;38.966;2023-11-19T08:13:40;8.46;90.22
65203;HTU21D;51788;45.124;38.966;2023-11-19T08:16:07;8.48;89.95
65203;HTU21D;51788;45.124;38.966;2023-11-19T08:18:33;8.49;90.20
65203;HTU21D;51788;45.124;38.966;2023-11-19T08:20:59;8.56;90.08
65203;HTU21D;51788;45.124;38.966;2023-11-19T08:23:26;8.52;90.01
65203;HTU21D;51788;45.124;38.966;2023-11-19T08:25:54;8.49;89.95
65203;HTU21D;51788;45.124;38.966;2023-11-19T08:28:20;8.45;90.54
65203;HTU21D;51788;45.124;38.966;2023-11-19T08:30:46;8.55;90.60
65203;HTU21D;51788;45.124;38.966;2023-11-19T08:33:12;8.56;90.59
65203;HTU21D;51788;45.124;38.966;2023-11-19T08:35:38;8.55;90.77
65203;HTU21D;51788;45.124;38.966;2023-11-19T08:38:04;8.55;90.90
65203;HTU21D;51788;45.124;38.966;2023-11-19T08:40:30;8.51;91.18
65203;HTU21D;51788;45.124;38.966;2023-11-19T08:42:57;8.53;91.21
65203;HTU21D;51788;45.124;38.966;2023-11-19T08:45:23;8.53;91.33
65203;HTU21D;51788;45.124;38.966;2023-11-19T08:47:49;8.52;91.35
65203;HTU21D;51788;45.124;38.966;2023-11-19T08:50:16;8.50;91.63
65203;HTU21D;51788;45.124;38.966;2023-11-19T08:52:42;8.51;91.69
65203;HTU21D;51788;45.124;38.966;2023-11-19T08:55:08;8.53;92.41
65203;HTU21D;51788;45.124;38.966;2023-11-19T08:57:35;8.49;92.30
65203;HTU21D;51788;45.124;38.966;2023-11-19T09:00:01;8.45;92.66
65203;HTU21D;51788;45.124;38.966;2023-11-19T09:02:34;8.49;92.31
65203;HTU21D;51788;45.124;38.966;2023-11-19T09:05:01;8.46;92.67
65203;HTU21D;51788;45.124;38.966;2023-11-19T09:07:27;8.50;92.40
65203;HTU21D;51788;45.124;38.966;2023-11-19T09:09:53;8.48;92.61
65203;HTU21D;51788;45.124;38.966;2023-11-19T09:12:19;8.55;92.65
65203;HTU21D;51788;45.124;38.966;2023-11-19T09:14:45;8.58;92.67
65203;HTU21D;51788;45.124;38.966;2023-11-19T09:17:11;8.55;92.77
65203;HTU21D;51788;45.124;38.966;2023-11-19T09:19:38;8.55;92.69
65203;HTU21D;51788;45.124;38.966;2023-11-19T09:22:04;8.52;92.53
65203;HTU21D;51788;45.124;38.966;2023-11-19T09:24:30;8.58;92.31
65203;HTU21D;51788;45.124;38.966;2023-11-19T09:26:56;8.55;92.43
65203;HTU21D;51788;45.124;38.966;2023-11-19T09:29:22;8.53;92.50
65203;HTU21D;51788;45.124;38.966;2023-11-19T09:31:47;8.58;92.50
65203;HTU21D;51788;45.124;38.966;2023-11-19T09:34:13;8.57;92.46
65203;HTU21D;51788;45.124;38.966;2023-11-19T09:36:39;8.55;92.41
65203;HTU21D;51788;45.124;38.966;2023-11-19T09:39:12;8.59;91.94
65203;HTU21D;51788;45.124;38.966;2023-11-19T09:41:40;8.55;92.09
65203;HTU21D;51788;45.124;38.966;2023-11-19T09:44:08;8.57;92.17
65203;HTU21D;51788;45.124;38.966;2023-11-19T09:46:35;8.57;92.11
65203;HTU21D;51788;45.124;38.966;2023-11-19T09:49:03;8.60;92.11
65203;HTU21D;51788;45.124;38.966;2023-11-19T09:51:30;8.62;91.96
65203;HTU21D;51788;45.124;38.966;2023-11-19T09:53:56;8.61;92.03
65203;HTU21D;51788;45.124;38.966;2023-11-19T09:56:23;8.61;92.28
65203;HTU21D;51788;45.124;38.966;2023-11-19T09:58:49;8.64;92.42
65203;HTU21D;51788;45.124;38.966;2023-11-19T10:01:15;8.72;92.30
65203;HTU21D;51788;45.124;38.966;2023-11-19T10:03:42;8.72;92.40
65203;HTU21D;51788;45.124;38.966;2023-11-19T10:06:10;8.77;92.66
65203;HTU21D;51788;45.124;38.966;2023-11-19T10:08:38;8.78;92.71
65203;HTU21D;51788;45.124;38.966;2023-11-19T10:11:07;8.75;92.95
65203;HTU21D;51788;45.124;38.966;2023-11-19T10:13:37;8.72;93.04
65203;HTU21D;51788;45.124;38.966;2023-11-19T10:16:12;8.71;93.50
65203;HTU21D;51788;45.124;38.966;2023-11-19T10:18:48;8.74;93.53
65203;HTU21D;51788;45.124;38.966;2023-11-19T10:21:19;8.73;93.67
65203;HTU21D;51788;45.124;38.966;2023-11-19T10:26:15;8.70;93.71
65203;HTU21D;51788;45.124;38.966;2023-11-19T10:28:41;8.73;93.63
65203;HTU21D;51788;45.124;38.966;2023-11-19T10:31:10;8.76;93.54
65203;HTU21D;51788;45.124;38.966;2023-11-19T10:33:35;8.77;93.55
65203;HTU21D;51788;45.124;38.966;2023-11-19T10:36:02;8.78;93.53
65203;HTU21D;51788;45.124;38.966;2023-11-19T10:38:28;8.85;93.45
65203;HTU21D;51788;45.124;38.966;2023-11-19T10:40:54;8.87;93.45
65203;HTU21D;51788;45.124;38.966;2023-11-19T10:43:21;8.82;93.56
65203;HTU21D;51788;45.124;38.966;2023-11-19T10:45:51;8.77;93.70
65203;HTU21D;51788;45.124;38.966;2023-11-19T10:48:18;8.76;93.91
65203;HTU21D;51788;45.124;38.966;2023-11-19T10:50:45;8.76;94.04
65203;HTU21D;51788;45.124;38.966;2023-11-19T10:53:12;8.79;94.11
65203;HTU21D;51788;45.124;38.966;2023-11-19T10:55:43;8.82;94.23
65203;HTU21D;51788;45.124;38.966;2023-11-19T10:58:15;8.81;94.34
65203;HTU21D;51788;45.124;38.966;2023-11-19T11:00:45;8.81;94.72
65203;HTU21D;51788;45.124;38.966;2023-11-19T11:03:19;8.81;94.59
65203;HTU21D;51788;45.124;38.966;2023-11-19T11:05:50;8.77;94.96
65203;HTU21D;51788;45.124;38.966;2023-11-19T11:08:17;8.76;95.24
65203;HTU21D;51788;45.124;38.966;2023-11-19T11:10:52;8.78;95.28
65203;HTU21D;51788;45.124;38.966;2023-11-19T11:13:18;8.78;95.49
65203;HTU21D;51788;45.124;38.966;2023-11-19T11:15:45;8.77;95.57
65203;HTU21D;51788;45.124;38.966;2023-11-19T11:18:13;8.76;95.68
65203;HTU21D;51788;45.124;38.966;2023-11-19T11:20:39;8.71;95.73
65203;HTU21D;51788;45.124;38.966;2023-11-19T11:39:46;8.74;95.91
65203;HTU21D;51788;45.124;38.966;2023-11-19T11:45:03;8.78;96.10
65203;HTU21D;51788;45.124;38.966;2023-11-19T11:50:25;8.79;96.17
65203;HTU21D;51788;45.124;38.966;2023-11-19T11:55:52;8.81;96.29
65203;HTU21D;51788;45.124;38.966;2023-11-19T11:58:31;8.82;96.23
65203;HTU21D;51788;45.124;38.966;2023-11-19T12:00:58;8.78;96.33
65203;HTU21D;51788;45.124;38.966;2023-11-19T12:03:28;8.76;96.48
65203;HTU21D;51788;45.124;38.966;2023-11-19T12:05:55;8.77;96.51
65203;HTU21D;51788;45.124;38.966;2023-11-19T12:08:26;8.74;96.60
65203;HTU21D;51788;45.124;38.966;2023-11-19T12:10:54;8.77;96.57
65203;HTU21D;51788;45.124;38.966;2023-11-19T12:13:53;8.72;96.78
65203;HTU21D;51788;45.124;38.966;2023-11-19T12:16:25;8.70;96.84
65203;HTU21D;51788;45.124;38.966;2023-11-19T12:18:54;8.67;96.92
65203;HTU21D;51788;45.124;38.966;2023-11-19T12:21:30;8.74;96.73
65203;HTU21D;51788;45.124;38.966;2023-11-19T12:23:58;8.73;96.82
65203;HTU21D;51788;45.124;38.966;2023-11-19T12:26:33;8.76;96.84
65203;HTU21D;51788;45.124;38.966;2023-11-19T12:29:00;8.74;96.91
65203;HTU21D;51788;45.124;38.966;2023-11-19T12:31:26;8.75;96.99
65203;HTU21D;51788;45.124;38.966;2023-11-19T12:33:53;8.76;97.23
65203;HTU21D;51788;45.124;38.966;2023-11-19T12:36:19;8.76;97.27
65203;HTU21D;51788;45.124;38.966;2023-11-19T12:38:45;8.76;97.29
65203;HTU21D;51788;45.124;38.966;2023-11-19T12:41:12;8.76;97.24
65203;HTU21D;51788;45.124;38.966;2023-11-19T12:43:39;8.76;97.29
65203;HTU21D;51788;45.124;38.966;2023-11-19T12:46:21;8.79;97.36
65203;HTU21D;51788;45.124;38.966;2023-11-19T12:48:48;8.81;97.45
65203;HTU21D;51788;45.124;38.966;2023-11-19T12:51:15;8.76;97.32
65203;HTU21D;51788;45.124;38.966;2023-11-19T12:53:49;8.75;97.49
65203;HTU21D;51788;45.124;38.966;2023-11-19T12:56:16;8.75;97.52
65203;HTU21D;51788;45.124;38.966;2023-11-19T12:58:42;8.76;97.55
65203;HTU21D;51788;45.124;38.966;2023-11-19T13:01:09;8.77;97.50
65203;HTU21D;51788;45.124;38.966;2023-11-19T13:03:38;8.74;97.51
65203;HTU21D;51788;45.124;38.966;2023-11-19T13:06:05;8.71;97.60
65203;HTU21D;51788;45.124;38.966;2023-11-19T13:08:50;8.79;97.65
65203;HTU21D;51788;45.124;38.966;2023-11-19T13:11:31;8.79;97.68
65203;HTU21D;51788;45.124;38.966;2023-11-19T13:14:00;8.78;97.62
65203;HTU21D;51788;45.124;38.966;2023-11-19T13:16:27;8.77;97.62
65203;HTU21D;51788;45.124;38.966;2023-11-19T13:18:54;8.73;97.74
65203;HTU21D;51788;45.124;38.966;2023-11-19T13:21:20;8.73;97.81
65203;HTU21D;51788;45.124;38.966;2023-11-19T13:23:46;8.80;97.75
65203;HTU21D;51788;45.124;38.966;2023-11-19T13:26:12;8.83;97.65
65203;HTU21D;51788;45.124;38.966;2023-11-19T13:28:39;8.88;97.58
65203;HTU21D;51788;45.124;38.966;2023-11-19T13:31:05;8.89;97.45
65203;HTU21D;51788;45.124;38.966;2023-11-19T13:33:31;8.87;97.47
65203;HTU21D;51788;45.124;38.966;2023-11-19T13:35:57;8.90;97.43
65203;HTU21D;51788;45.124;38.966;2023-11-19T13:38:23;8.91;97.40
65203;HTU21D;51788;45.124;38.966;2023-11-19T13:40:50;8.92;97.30
65203;HTU21D;51788;45.124;38.966;2023-11-19T13:43:17;8.91;97.31
65203;HTU21D;51788;45.124;38.966;2023-11-19T13:45:43;8.90;97.29
65203;HTU21D;51788;45.124;38.966;2023-11-19T13:48:09;8.93;97.21
65203;HTU21D;51788;45.124;38.966;2023-11-19T13:50:35;8.95;97.10
65203;HTU21D;51788;45.124;38.966;2023-11-19T13:53:01;8.94;97.12
65203;HTU21D;51788;45.124;38.966;2023-11-19T13:55:27;8.93;97.13
65203;HTU21D;51788;45.124;38.966;2023-11-19T13:57:53;8.94;97.08
65203;HTU21D;51788;45.124;38.966;2023-11-19T14:00:19;9.01;96.92
65203;HTU21D;51788;45.124;38.966;2023-11-19T14:02:46;8.96;96.95
65203;HTU21D;51788;45.124;38.966;2023-11-19T14:05:16;8.92;97.01
65203;HTU21D;51788;45.124;38.966;2023-11-19T14:07:45;8.93;96.96
65203;HTU21D;51788;45.124;38.966;2023-11-19T14:10:14;8.91;96.94
65203;HTU21D;51788;45.124;38.966;2023-11-19T14:12:41;8.88;97.04
65203;HTU21D;51788;45.124;38.966;2023-11-19T14:15:09;8.88;96.97
65203;HTU21D;51788;45.124;38.966;2023-11-19T14:17:39;8.85;97.02
65203;HTU21D;51788;45.124;38.966;2023-11-19T14:20:05;8.81;96.99
65203;HTU21D;51788;45.124;38.966;2023-11-19T14:22:50;8.79;97.01
65203;HTU21D;51788;45.124;38.966;2023-11-19T14:25:17;8.76;97.07
65203;HTU21D;51788;45.124;38.966;2023-11-19T14:27:44;8.75;97.00
65203;HTU21D;51788;45.124;38.966;2023-11-19T14:30:12;8.73;97.10
65203;HTU21D;51788;45.124;38.966;2023-11-19T14:32:40;8.71;97.15
65203;HTU21D;51788;45.124;38.966;2023-11-19T14:35:08;8.74;97.16
65203;HTU21D;51788;45.124;38.966;2023-11-19T14:37:34;8.72;97.23
65203;HTU21D;51788;45.124;38.966;2023-11-19T14:40:00;8.71;97.17
65203;HTU21D;51788;45.124;38.966;2023-11-19T14:42:29;8.67;97.23
65203;HTU21D;51788;45.124;38.966;2023-11-19T14:44:55;8.64;97.27
65203;HTU21D;51788;45.124;38.966;2023-11-19T14:47:22;8.65;97.32
65203;HTU21D;51788;45.124;38.966;2023-11-19T14:49:48;8.61;97.33
65203;HTU21D;51788;45.124;38.966;2023-11-19T14:52:14;8.64;97.29
65203;HTU21D;51788;45.124;38.966;2023-11-19T14:54:40;8.63;97.29
65203;HTU21D;51788;45.124;38.966;2023-11-19T14:57:07;8.59;97.33
65203;HTU21D;51788;45.124;38.966;2023-11-19T14:59:36;8.53;97.42
65203;HTU21D;51788;45.124;38.966;2023-11-19T15:02:03;8.50;97.55
65203;HTU21D;51788;45.124;38.966;2023-11-19T15:04:31;8.49;97.61
65203;HTU21D;51788;45.124;38.966;2023-11-19T15:07:00;8.46;97.62
65203;HTU21D;51788;45.124;38.966;2023-11-19T15:09:26;8.45;97.66
65203;HTU21D;51788;45.124;38.966;2023-11-19T15:11:55;8.43;97.66
65203;HTU21D;51788;45.124;38.966;2023-11-19T15:14:23;8.35;97.74
65203;HTU21D;51788;45.124;38.966;2023-11-19T15:16:50;8.38;97.81
65203;HTU21D;51788;45.124;38.966;2023-11-19T15:19:17;8.36;97.78
65203;HTU21D;51788;45.124;38.966;2023-11-19T15:21:44;8.34;97.85
65203;HTU21D;51788;45.124;38.966;2023-11-19T15:24:10;8.29;97.89
65203;HTU21D;51788;45.124;38.966;2023-11-19T15:26:37;8.32;97.95
65203;HTU21D;51788;45.124;38.966;2023-11-19T15:29:04;8.33;97.92
65203;HTU21D;51788;45.124;38.966;2023-11-19T15:31:30;8.34;97.87
65203;HTU21D;51788;45.124;38.966;2023-11-19T15:33:56;8.35;97.84
65203;HTU21D;51788;45.124;38.966;2023-11-19T15:36:22;8.35;97.81
65203;HTU21D;51788;45.124;38.966;2023-11-19T15:38:49;8.38;97.80
65203;HTU21D;51788;45.124;38.966;2023-11-19T15:41:15;8.38;97.78
65203;HTU21D;51788;45.124;38.966;2023-11-19T15:43:42;8.41;97.78